createdAt,value
2018-06-15T00:00:11.999Z,6.33
2018-06-15T00:02:40.293Z,7.47
2018-06-15T00:05:08.537Z,8.33
2018-06-15T00:07:36.776Z,7.33
2018-06-15T00:10:05.272Z,9.07
2018-06-15T00:12:33.691Z,7.43
2018-06-15T00:15:01.966Z,7.93
2018-06-15T00:17:30.236Z,7.17
2018-06-15T00:19:58.483Z,7.60
2018-06-15T00:22:27.081Z,7.00
2018-06-15T00:24:55.292Z,7.20
2018-06-15T00:27:23.528Z,7.87
2018-06-15T00:29:51.775Z,7.97
2018-06-15T00:32:20.057Z,6.50
2018-06-15T00:34:48.306Z,6.30
2018-06-15T00:37:16.536Z,6.97
2018-06-15T00:39:44.781Z,6.93
2018-06-15T00:42:13.043Z,8.07
2018-06-15T00:44:41.267Z,6.53
2018-06-15T00:47:09.507Z,6.10
2018-06-15T00:49:38.346Z,6.50
2018-06-15T00:52:06.569Z,6.60
2018-06-15T00:54:35.310Z,6.40
2018-06-15T00:57:14.828Z,7.33
2018-06-15T00:59:43.171Z,6.33
2018-06-15T01:02:11.163Z,7.27
2018-06-15T01:04:39.380Z,6.80
2018-06-15T01:07:07.622Z,7.57
2018-06-15T01:09:36.037Z,6.80
2018-06-15T01:12:04.356Z,8.40
2018-06-15T01:14:32.628Z,7.77
2018-06-15T01:17:00.876Z,7.33
2018-06-15T01:22:01.301Z,10.70
2018-06-15T01:24:29.582Z,7.77
2018-06-15T01:26:57.879Z,7.73
2018-06-15T01:29:26.507Z,7.47
2018-06-15T01:31:57.730Z,8.40
2018-06-15T01:34:26.483Z,7.77
2018-06-15T01:36:54.683Z,8.53
2018-06-15T01:39:22.975Z,8.73
2018-06-15T01:41:51.240Z,8.10
2018-06-15T01:44:19.471Z,8.13
2018-06-15T01:46:47.694Z,8.93
2018-06-15T01:49:15.954Z,8.13
2018-06-15T01:51:44.196Z,8.20
2018-06-15T01:54:12.407Z,11.23
2018-06-15T01:56:40.725Z,9.27
2018-06-15T01:59:09.411Z,9.63
2018-06-15T02:01:37.706Z,8.70
2018-06-15T02:04:05.911Z,7.90
2018-06-15T02:06:34.152Z,7.17
2018-06-15T02:09:02.428Z,6.93
2018-06-15T02:11:30.831Z,7.30
2018-06-15T02:13:59.144Z,8.50
2018-06-15T02:16:27.381Z,8.60
2018-06-15T02:18:55.652Z,9.70
2018-06-15T02:21:24.064Z,8.90
2018-06-15T02:23:52.316Z,8.73
2018-06-15T02:26:23.263Z,7.53
2018-06-15T02:28:51.568Z,7.63
2018-06-15T02:31:19.808Z,9.70
2018-06-15T02:33:48.081Z,7.50
2018-06-15T02:36:16.372Z,7.30
2018-06-15T02:38:44.679Z,7.73
2018-06-15T02:41:12.938Z,8.43
2018-06-15T02:43:41.163Z,7.80
2018-06-15T02:46:09.432Z,7.77
2018-06-15T02:48:38.201Z,7.27
2018-06-15T02:51:07.073Z,7.47
2018-06-15T02:53:35.380Z,7.50
2018-06-15T02:56:03.600Z,7.53
2018-06-15T02:58:31.831Z,7.70
2018-06-15T03:01:00.131Z,9.13
2018-06-15T03:03:29.501Z,7.60
2018-06-15T03:05:57.723Z,8.00
2018-06-15T03:08:26.004Z,7.60
2018-06-15T03:10:54.260Z,8.20
2018-06-15T03:13:22.549Z,7.57
2018-06-15T03:15:50.817Z,8.20
2018-06-15T03:18:19.109Z,8.93
2018-06-15T03:20:47.400Z,6.83
2018-06-15T03:23:15.610Z,8.97
2018-06-15T03:25:43.831Z,10.03
2018-06-15T03:28:12.108Z,6.90
2018-06-15T03:30:40.490Z,8.20
2018-06-15T03:33:08.679Z,8.47
2018-06-15T03:35:37.027Z,7.47
2018-06-15T03:38:05.313Z,7.60
2018-06-15T03:40:33.596Z,7.53
2018-06-15T03:43:01.877Z,8.03
2018-06-15T03:45:30.127Z,8.23
2018-06-15T03:47:58.351Z,9.00
2018-06-15T03:50:26.335Z,7.83
2018-06-15T03:52:54.591Z,8.37
2018-06-15T03:55:22.887Z,7.83
2018-06-15T03:57:51.139Z,7.67
2018-06-15T04:00:19.371Z,8.70
2018-06-15T04:02:48.345Z,8.57
2018-06-15T04:05:16.575Z,8.63
2018-06-15T04:07:44.813Z,7.73
2018-06-15T04:10:13.092Z,7.47
2018-06-15T04:12:41.314Z,8.87
2018-06-15T04:15:09.639Z,7.70
2018-06-15T04:17:37.888Z,9.00
2018-06-15T04:20:06.222Z,6.93
2018-06-15T04:22:36.960Z,7.30
2018-06-15T04:25:05.213Z,7.07
2018-06-15T04:27:33.481Z,7.40
2018-06-15T04:30:01.893Z,7.83
2018-06-15T04:32:30.126Z,7.70
2018-06-15T04:34:59.357Z,6.97
2018-06-15T04:37:27.980Z,8.73
2018-06-15T04:39:56.195Z,7.67
2018-06-15T04:42:25.739Z,10.33
2018-06-15T04:44:54.135Z,6.93
2018-06-15T04:47:22.415Z,7.23
2018-06-15T04:49:50.766Z,6.67
2018-06-15T04:52:19.035Z,7.13
2018-06-15T04:54:47.383Z,7.23
2018-06-15T04:57:15.684Z,6.53
2018-06-15T04:59:43.879Z,6.77
2018-06-15T05:02:12.279Z,10.20
2018-06-15T05:04:40.260Z,6.67
2018-06-15T05:07:08.484Z,6.50
2018-06-15T05:09:37.047Z,5.93
2018-06-15T05:12:05.263Z,5.40
2018-06-15T05:14:33.512Z,6.40
2018-06-15T05:17:02.679Z,6.20
2018-06-15T05:19:30.949Z,6.93
2018-06-15T05:21:59.168Z,5.87
2018-06-15T05:24:27.389Z,7.15
2018-06-15T05:26:56.571Z,6.40
2018-06-15T05:29:24.810Z,6.10
2018-06-15T05:31:53.003Z,6.85
2018-06-15T05:34:21.219Z,4.80
2018-06-15T05:36:49.479Z,5.65
2018-06-15T05:39:17.752Z,6.10
2018-06-15T05:41:45.718Z,6.10
2018-06-15T05:44:13.986Z,6.40
2018-06-15T05:46:42.264Z,5.95
2018-06-15T05:49:10.491Z,5.47
2018-06-15T05:51:38.720Z,5.87
2018-06-15T05:54:06.976Z,5.97
2018-06-15T05:56:35.215Z,5.10
2018-06-15T05:59:04.016Z,6.62
2018-06-15T06:01:32.387Z,4.47
2018-06-15T06:04:02.936Z,5.37
2018-06-15T06:06:31.114Z,5.08
2018-06-15T06:08:59.838Z,6.28
2018-06-15T06:11:28.231Z,4.97
2018-06-15T06:13:56.464Z,4.83
2018-06-15T06:16:24.812Z,5.05
2018-06-15T06:18:53.716Z,4.83
2018-06-15T06:21:22.838Z,5.10
2018-06-15T06:23:51.163Z,4.95
2018-06-15T06:26:19.710Z,4.47
2018-06-15T06:28:49.259Z,4.75
2018-06-15T06:31:17.614Z,5.17
2018-06-15T06:33:46.044Z,3.10
2018-06-15T06:36:14.303Z,3.22
2018-06-15T06:38:43.023Z,3.20
2018-06-15T06:41:11.347Z,2.50
2018-06-15T06:43:39.760Z,4.42
2018-06-15T06:46:08.056Z,3.58
2018-06-15T06:48:36.582Z,3.40
2018-06-15T06:51:06.023Z,3.40
2018-06-15T06:53:34.282Z,3.72
2018-06-15T06:56:02.831Z,3.55
2018-06-15T06:58:31.234Z,4.00
2018-06-15T07:00:59.472Z,4.55
2018-06-15T07:03:27.799Z,3.40
2018-06-15T07:05:56.170Z,3.72
2018-06-15T07:08:24.532Z,3.30
2018-06-15T07:10:52.788Z,3.62
2018-06-15T07:13:21.111Z,4.33
2018-06-15T07:15:49.407Z,3.65
2018-06-15T07:18:17.683Z,4.17
2018-06-15T07:20:45.980Z,3.52
2018-06-15T07:23:14.207Z,4.10
2018-06-15T07:25:42.508Z,6.83
2018-06-15T07:28:10.811Z,3.50
2018-06-15T07:30:39.128Z,3.58
2018-06-15T07:33:07.397Z,4.78
2018-06-15T07:35:35.650Z,4.10
2018-06-15T07:38:03.836Z,4.33
2018-06-15T07:40:32.091Z,5.17
2018-06-15T07:43:00.368Z,3.83
2018-06-15T07:45:28.609Z,5.55
2018-06-15T07:47:57.048Z,5.45
2018-06-15T07:50:25.264Z,3.50
2018-06-15T07:52:53.551Z,3.70
2018-06-15T07:55:21.788Z,4.78
2018-06-15T07:57:50.036Z,3.92
2018-06-15T08:00:19.107Z,3.27
2018-06-15T08:02:47.433Z,3.47
2018-06-15T08:05:15.645Z,3.70
2018-06-15T08:07:43.916Z,4.60
2018-06-15T08:10:13.009Z,3.65
2018-06-15T08:12:41.496Z,3.40
2018-06-15T08:15:11.528Z,3.08
2018-06-15T08:17:39.743Z,3.45
2018-06-15T08:20:07.991Z,3.47
2018-06-15T08:22:36.204Z,3.92
2018-06-15T08:25:04.908Z,3.98
2018-06-15T08:27:33.177Z,3.40
2018-06-15T08:30:01.834Z,3.87
2018-06-15T08:32:30.151Z,2.98
2018-06-15T08:34:58.812Z,3.40
2018-06-15T08:37:27.460Z,3.70
2018-06-15T08:39:55.715Z,2.95
2018-06-15T08:42:24.993Z,2.98
2018-06-15T08:44:53.418Z,3.30
2018-06-15T08:47:21.676Z,3.55
2018-06-15T08:49:49.963Z,3.00
2018-06-15T08:52:18.241Z,2.60
2018-06-15T08:54:46.255Z,3.47
2018-06-15T08:57:14.468Z,2.60
2018-06-15T08:59:42.765Z,3.10
2018-06-15T09:02:11.177Z,4.33
2018-06-15T09:04:39.420Z,3.58
2018-06-15T09:07:07.675Z,3.60
2018-06-15T09:09:35.972Z,4.15
2018-06-15T09:12:04.182Z,4.28
2018-06-15T09:14:32.398Z,2.80
2018-06-15T09:17:01.549Z,2.62
2018-06-15T09:19:29.911Z,4.28
2018-06-15T09:21:58.163Z,2.30
2018-06-15T09:24:26.420Z,2.80
2018-06-15T09:26:54.785Z,3.02
2018-06-15T09:29:23.003Z,3.42
2018-06-15T09:31:51.746Z,5.83
2018-06-15T09:34:19.984Z,4.80
2018-06-15T09:36:48.212Z,4.17
2018-06-15T09:39:16.464Z,3.75
2018-06-15T09:41:44.817Z,6.28
2018-06-15T09:44:13.055Z,3.10
2018-06-15T09:46:41.246Z,4.08
2018-06-15T09:49:09.474Z,3.10
2018-06-15T09:51:37.754Z,3.77
2018-06-15T09:54:05.964Z,5.05
2018-06-15T09:56:34.236Z,3.12
2018-06-15T09:59:02.474Z,2.35
2018-06-15T10:01:30.758Z,3.33
2018-06-15T10:03:59.023Z,4.65
2018-06-15T10:06:27.299Z,3.35
2018-06-15T10:08:55.571Z,3.30
2018-06-15T10:11:23.800Z,3.70
2018-06-15T10:13:52.502Z,4.58
2018-06-15T10:16:20.740Z,1.95
2018-06-15T10:18:49.811Z,2.75
2018-06-15T10:21:18.068Z,4.00
2018-06-15T10:23:46.934Z,3.42
2018-06-15T10:26:15.182Z,3.55
2018-06-15T10:28:43.661Z,2.60
2018-06-15T10:31:11.855Z,2.70
2018-06-15T10:33:40.812Z,2.45
2018-06-15T10:36:09.108Z,5.75
2018-06-15T10:38:37.398Z,3.05
2018-06-15T10:41:06.134Z,3.27
2018-06-15T10:43:34.403Z,3.95
2018-06-15T10:46:02.690Z,2.70
2018-06-15T10:48:31.212Z,2.47
2018-06-15T10:50:59.447Z,3.00
2018-06-15T10:53:27.710Z,4.00
2018-06-15T10:55:56.793Z,3.17
2018-06-15T10:58:25.346Z,5.78
2018-06-15T11:00:54.358Z,3.80
2018-06-15T11:03:22.608Z,4.92
2018-06-15T11:05:50.855Z,2.80
2018-06-15T11:08:19.143Z,3.22
2018-06-15T11:10:47.831Z,3.35
2018-06-15T11:13:16.656Z,2.67
2018-06-15T11:15:45.412Z,2.50
2018-06-15T11:18:13.712Z,4.92
2018-06-15T11:20:42.043Z,4.00
2018-06-15T11:23:10.320Z,3.42
2018-06-15T11:25:38.556Z,2.67
2018-06-15T11:28:06.768Z,3.95
2018-06-15T11:30:35.032Z,3.50
2018-06-15T11:33:03.255Z,3.58
2018-06-15T11:35:31.840Z,3.50
2018-06-15T11:40:29.311Z,2.72
2018-06-15T11:42:59.736Z,3.33
2018-06-15T11:45:27.935Z,3.50
2018-06-15T11:47:57.019Z,2.72
2018-06-15T11:50:25.681Z,2.77
2018-06-15T11:52:54.795Z,2.70
2018-06-15T11:55:22.833Z,2.70
2018-06-15T11:57:51.027Z,3.10
2018-06-15T12:00:19.451Z,3.20
2018-06-15T12:02:47.732Z,2.60
2018-06-15T12:05:15.952Z,3.62
2018-06-15T12:07:44.167Z,4.42
2018-06-15T12:10:12.501Z,2.52
2018-06-15T12:12:40.741Z,2.42
2018-06-15T12:15:08.927Z,2.35
2018-06-15T12:17:37.686Z,3.70
2018-06-15T12:20:11.975Z,2.95
2018-06-15T12:22:40.263Z,2.95
2018-06-15T12:25:08.855Z,2.10
2018-06-15T12:27:37.188Z,2.85
2018-06-15T12:30:06.263Z,2.80
2018-06-15T12:32:34.471Z,3.08
2018-06-15T12:35:02.703Z,2.47
2018-06-15T12:37:30.979Z,4.17
2018-06-15T12:39:59.975Z,2.92
2018-06-15T12:42:29.227Z,2.77
2018-06-15T12:44:57.787Z,2.67
2018-06-15T12:47:26.603Z,3.22
2018-06-15T12:49:55.307Z,2.05
2018-06-15T12:52:23.860Z,2.50
2018-06-15T12:54:52.068Z,3.67
2018-06-15T12:57:21.141Z,4.53
2018-06-15T12:59:50.202Z,2.52
2018-06-15T13:02:18.448Z,2.40
2018-06-15T13:04:46.799Z,2.27
2018-06-15T13:07:15.703Z,3.02
2018-06-15T13:09:43.955Z,10.75
2018-06-15T13:12:11.968Z,2.62
2018-06-15T13:14:40.210Z,3.20
2018-06-15T13:17:08.498Z,2.98
2018-06-15T13:19:36.799Z,2.77
2018-06-15T13:22:05.099Z,2.70
2018-06-15T13:24:34.965Z,3.10
2018-06-15T13:27:03.462Z,2.80
2018-06-15T13:29:32.029Z,2.22
2018-06-15T13:32:00.210Z,3.60
2018-06-15T13:34:28.467Z,2.65
2018-06-15T13:36:56.774Z,2.20
2018-06-15T13:39:25.007Z,2.62
2018-06-15T13:41:53.259Z,2.17
2018-06-15T13:44:21.500Z,2.08
2018-06-15T13:46:49.702Z,2.80
2018-06-15T13:49:17.998Z,2.60
2018-06-15T13:51:47.372Z,2.70
2018-06-15T13:54:15.645Z,2.45
2018-06-15T13:56:43.947Z,2.52
2018-06-15T13:59:12.199Z,2.72
2018-06-15T14:01:40.471Z,2.98
2018-06-15T14:04:08.662Z,2.55
2018-06-15T14:06:36.954Z,3.00
2018-06-15T14:09:06.763Z,2.87
2018-06-15T14:11:35.011Z,4.65
2018-06-15T14:14:03.293Z,2.60
2018-06-15T14:16:31.621Z,3.00
2018-06-15T14:18:59.914Z,2.40
2018-06-15T14:21:28.445Z,2.65
2018-06-15T14:23:56.736Z,2.83
2018-06-15T14:26:25.299Z,3.02
2018-06-15T14:28:53.658Z,2.72
2018-06-15T14:31:21.919Z,3.05
2018-06-15T14:33:50.227Z,2.65
2018-06-15T14:36:18.451Z,4.05
2018-06-15T14:38:46.697Z,3.12
2018-06-15T14:41:15.687Z,2.67
2018-06-15T14:43:44.431Z,3.95
2018-06-15T14:46:12.686Z,2.87
2018-06-15T14:48:40.918Z,2.30
2018-06-15T14:51:09.256Z,2.80
2018-06-15T14:53:37.520Z,2.52
2018-06-15T14:56:05.921Z,3.00
2018-06-15T14:58:34.331Z,2.27
2018-06-15T15:01:02.500Z,2.90
2018-06-15T15:03:31.040Z,2.40
2018-06-15T15:05:59.283Z,2.55
2018-06-15T15:08:27.596Z,3.65
2018-06-15T15:10:55.829Z,2.40
2018-06-15T15:13:24.097Z,2.37
2018-06-15T15:15:52.363Z,2.40
2018-06-15T15:18:20.655Z,2.00
2018-06-15T15:20:49.143Z,4.50
2018-06-15T15:23:17.405Z,2.58
2018-06-15T15:25:45.706Z,4.10
2018-06-15T15:28:14.847Z,2.65
2018-06-15T15:30:43.115Z,2.25
2018-06-15T15:33:11.383Z,2.98
2018-06-15T15:35:39.592Z,2.42
2018-06-15T15:38:07.885Z,2.65
2018-06-15T15:40:36.251Z,6.62
2018-06-15T15:43:04.524Z,3.80
2018-06-15T15:45:32.856Z,5.33
2018-06-15T15:48:01.817Z,4.12
2018-06-15T15:50:30.184Z,2.42
2018-06-15T15:52:58.346Z,3.30
2018-06-15T15:55:27.016Z,1.92
2018-06-15T15:57:55.612Z,2.50
2018-06-15T16:00:23.861Z,2.10
2018-06-15T16:02:52.075Z,3.45
2018-06-15T16:05:20.528Z,2.33
2018-06-15T16:07:49.258Z,2.50
2018-06-15T16:10:17.473Z,2.62
2018-06-15T16:12:46.095Z,2.50
2018-06-15T16:15:14.363Z,3.95
2018-06-15T16:17:42.531Z,3.52
2018-06-15T16:20:10.775Z,2.67
2018-06-15T16:22:39.095Z,2.40
2018-06-15T16:25:07.355Z,3.05
2018-06-15T16:27:36.231Z,3.10
2018-06-15T16:30:04.773Z,4.60
2018-06-15T16:32:32.992Z,2.60
2018-06-15T16:35:01.322Z,2.67
2018-06-15T16:37:29.537Z,2.85
2018-06-15T16:39:57.802Z,2.70
2018-06-15T16:42:26.075Z,2.60
2018-06-15T16:44:54.295Z,3.27
2018-06-15T16:47:22.603Z,4.85
2018-06-15T16:49:50.904Z,3.50
2018-06-15T16:52:19.128Z,3.00
2018-06-15T16:54:47.375Z,2.77
2018-06-15T16:57:16.032Z,3.00
2018-06-15T16:59:44.292Z,3.37
2018-06-15T17:02:12.792Z,3.12
2018-06-15T17:04:41.019Z,3.35
2018-06-15T17:07:09.320Z,3.20
2018-06-15T17:09:37.601Z,2.90
2018-06-15T17:12:05.813Z,2.95
2018-06-15T17:14:34.041Z,2.98
2018-06-15T17:17:02.322Z,2.70
2018-06-15T17:19:30.543Z,3.77
2018-06-15T17:21:58.794Z,3.85
2018-06-15T17:24:27.091Z,3.22
2018-06-15T17:26:55.346Z,3.65
2018-06-15T17:29:23.592Z,2.60
2018-06-15T17:31:51.870Z,3.37
2018-06-15T17:34:20.147Z,2.87
2018-06-15T17:36:48.524Z,2.98
2018-06-15T17:39:16.937Z,2.58
2018-06-15T17:41:45.687Z,2.72
2018-06-15T17:44:14.924Z,3.08
2018-06-15T17:46:43.289Z,3.00
2018-06-15T17:49:11.658Z,3.80
2018-06-15T17:51:39.902Z,2.87
2018-06-15T17:54:08.829Z,4.30
2018-06-15T17:56:37.640Z,3.02
2018-06-15T17:59:06.160Z,3.22
2018-06-15T18:01:34.749Z,3.65
2018-06-15T18:04:03.194Z,3.92
2018-06-15T18:06:31.797Z,3.47
2018-06-15T18:09:00.162Z,4.22
2018-06-15T18:11:28.383Z,2.52
2018-06-15T18:13:56.827Z,3.15
2018-06-15T18:16:25.196Z,3.05
2018-06-15T18:18:53.515Z,3.37
2018-06-15T18:21:21.866Z,2.98
2018-06-15T18:23:50.067Z,3.10
2018-06-15T18:26:18.796Z,3.67
2018-06-15T18:28:47.077Z,3.20
2018-06-15T18:31:15.634Z,3.08
2018-06-15T18:33:44.195Z,4.17
2018-06-15T18:36:12.839Z,4.40
2018-06-15T18:38:41.349Z,3.22
2018-06-15T18:41:10.171Z,3.33
2018-06-15T18:43:38.478Z,3.45
2018-06-15T18:46:08.795Z,3.95
2018-06-15T18:48:37.024Z,3.35
2018-06-15T18:51:05.246Z,4.42
2018-06-15T18:53:33.503Z,3.20
2018-06-15T18:56:02.794Z,2.95
2018-06-15T18:58:31.081Z,4.25
2018-06-15T19:00:59.058Z,4.83
2018-06-15T19:03:27.490Z,3.47
2018-06-15T19:05:56.453Z,3.58
2018-06-15T19:08:24.745Z,3.52
2018-06-15T19:10:53.577Z,4.42
2018-06-15T19:13:22.213Z,4.12
2018-06-15T19:15:50.589Z,3.70
2018-06-15T19:18:19.062Z,4.15
2018-06-15T19:20:48.012Z,4.22
2018-06-15T19:23:16.261Z,3.55
2018-06-15T19:25:44.723Z,4.17
2018-06-15T19:28:12.994Z,4.85
2018-06-15T19:30:41.244Z,4.95
2018-06-15T19:33:09.575Z,3.60
2018-06-15T19:35:37.923Z,5.08
2018-06-15T19:38:06.892Z,4.22
2018-06-15T19:40:36.379Z,4.70
2018-06-15T19:43:04.631Z,4.25
2018-06-15T19:45:32.908Z,4.42
2018-06-15T19:48:01.158Z,4.55
2018-06-15T19:50:29.416Z,5.60
2018-06-15T19:52:57.640Z,6.28
2018-06-15T19:55:25.908Z,5.00
2018-06-15T19:57:54.213Z,5.12
2018-06-15T20:00:22.708Z,4.62
2018-06-15T20:02:51.081Z,6.15
2018-06-15T20:05:19.060Z,5.12
2018-06-15T20:07:47.291Z,5.95
2018-06-15T20:10:15.757Z,5.08
2018-06-15T20:12:43.995Z,4.72
2018-06-15T20:15:12.228Z,4.60
2018-06-15T20:17:40.500Z,5.17
2018-06-15T20:20:09.548Z,6.33
2018-06-15T20:22:37.791Z,4.78
2018-06-15T20:25:06.983Z,5.05
2018-06-15T20:27:35.267Z,5.83
2018-06-15T20:30:03.653Z,5.80
2018-06-15T20:32:31.940Z,4.22
2018-06-15T20:35:00.636Z,4.45
2018-06-15T20:37:30.773Z,5.70
2018-06-15T20:39:59.018Z,5.05
2018-06-15T20:42:27.280Z,6.45
2018-06-15T20:44:55.578Z,4.75
2018-06-15T20:47:24.295Z,5.37
2018-06-15T20:49:53.761Z,4.90
2018-06-15T20:52:21.981Z,5.00
2018-06-15T20:54:50.251Z,5.12
2018-06-15T20:57:18.475Z,6.70
2018-06-15T20:59:46.663Z,5.62
2018-06-15T21:02:14.814Z,5.78
2018-06-15T21:04:43.020Z,5.42
2018-06-15T21:07:11.268Z,4.95
2018-06-15T21:09:39.802Z,5.62
2018-06-15T21:12:08.020Z,5.30
2018-06-15T21:14:36.633Z,6.33
2018-06-15T21:17:05.178Z,7.53
2018-06-15T21:19:33.992Z,5.53
2018-06-15T21:22:02.342Z,5.23
2018-06-15T21:24:30.601Z,6.27
2018-06-15T21:26:59.120Z,7.00
2018-06-15T21:29:27.374Z,6.83
2018-06-15T21:31:55.731Z,6.73
2018-06-15T21:34:24.578Z,6.37
2018-06-15T21:36:52.884Z,8.20
2018-06-15T21:39:21.499Z,6.70
2018-06-15T21:41:50.017Z,6.70
2018-06-15T21:44:18.308Z,9.13
2018-06-15T21:46:47.457Z,8.10
2018-06-15T21:49:15.700Z,8.40
2018-06-15T21:51:43.968Z,6.60
2018-06-15T21:54:12.200Z,6.77
2018-06-15T21:56:40.460Z,8.63
2018-06-15T21:59:09.201Z,7.00
2018-06-15T22:01:37.431Z,7.07
2018-06-15T22:04:06.604Z,7.40
2018-06-15T22:06:34.799Z,8.43
2018-06-15T22:09:03.552Z,8.23
2018-06-15T22:11:31.880Z,9.07
2018-06-15T22:14:00.319Z,10.80
2018-06-15T22:16:32.802Z,13.20
2018-06-15T22:19:01.020Z,8.97
2018-06-15T22:21:29.651Z,6.73
2018-06-15T22:23:57.939Z,10.50
2018-06-15T22:26:26.165Z,9.23
2018-06-15T22:28:54.971Z,10.93
2018-06-15T22:31:23.224Z,9.40
2018-06-15T22:33:51.891Z,10.43
2018-06-15T22:36:20.076Z,9.93
2018-06-15T22:38:48.260Z,8.80
2018-06-15T22:41:16.511Z,8.30
2018-06-15T22:43:44.778Z,9.90
2018-06-15T22:46:13.007Z,13.53
2018-06-15T22:48:41.254Z,9.80
2018-06-15T22:51:09.502Z,10.90
2018-06-15T22:53:37.744Z,12.30
2018-06-15T22:56:06.017Z,9.37
2018-06-15T22:58:34.227Z,9.87
2018-06-15T23:01:02.467Z,12.87
2018-06-15T23:03:30.730Z,10.43
2018-06-15T23:05:58.963Z,12.37
2018-06-15T23:08:27.201Z,13.30
2018-06-15T23:10:57.267Z,11.63
2018-06-15T23:13:25.536Z,11.63
2018-06-15T23:15:53.923Z,14.40
2018-06-15T23:18:22.156Z,11.47
2018-06-15T23:20:50.388Z,10.73
2018-06-15T23:23:18.637Z,10.07
2018-06-15T23:25:46.870Z,10.07
2018-06-15T23:28:15.159Z,9.87
2018-06-15T23:30:44.668Z,10.07
2018-06-15T23:33:12.984Z,12.40
2018-06-15T23:35:41.232Z,12.77
2018-06-15T23:38:09.555Z,9.40
2018-06-15T23:40:37.537Z,9.73
2018-06-15T23:43:06.180Z,10.77
2018-06-15T23:45:34.407Z,14.67
2018-06-15T23:48:02.639Z,10.50
2018-06-15T23:50:32.735Z,15.40
2018-06-15T23:53:01.001Z,16.30
2018-06-15T23:55:29.262Z,16.87
2018-06-15T23:57:57.471Z,17.43
